Aviation Digital Data Service (ADDS)

Output produced by METARs form (0845 UTC 25 October 2014)
found at http://www.aviationweather.gov/adds/metars/
 
KTHV 250753Z AUTO 00000KT 10SM CLR 04/02 A2994 RMK AO2 SLP140 T00440022
KTHV 250653Z AUTO 00000KT 10SM CLR 04/02 A2994 RMK AO2 SLP141 T00390017
KTHV 250553Z AUTO 00000KT 10SM CLR 07/03 A2994 RMK AO2 SLP141 T00720028 10133 20072 58001
KTHV 250453Z AUTO 27004KT 10SM CLR 10/03 A2994 RMK AO2 SLP141 T01000028 402060078
KTHV 250353Z AUTO VRB03KT 10SM CLR 09/03 A2994 RMK AO2 SLP142 T00890033
KTHV 250253Z AUTO 28004KT 10SM CLR 11/03 A2994 RMK AO2 SLP142 T01110033 51009
KTHV 250153Z AUTO 28006KT 10SM CLR 12/03 A2993 RMK AO2 SLP139 T01220033
KTHV 250053Z AUTO 28005KT 10SM CLR 12/03 A2992 RMK AO2 SLP135 T01220028
KTHV 242353Z AUTO 28006KT 10SM CLR 13/02 A2991 RMK AO2 SLP132 T01280022 10206 20111 53013
KTHV 242253Z AUTO 28004KT 10SM CLR 13/02 A2990 RMK AO2 SLP127 T01330017
KTHV 242153Z AUTO 29007KT 10SM CLR 17/01 A2989 RMK AO2 SLP123 T01670006
KTHV 242053Z AUTO 29009KT 10SM CLR 18/03 A2988 RMK AO2 SLP118 T01780028 56006
KTHV 241953Z AUTO 30011G19KT 10SM CLR 19/00 A2988 RMK AO2 SLP119 T01890000
KTHV 241853Z AUTO 30012KT 10SM CLR 18/01 A2988 RMK AO2 SLP119 T01830011
KTHV 241753Z AUTO 30009KT 10SM CLR 18/01 A2990 RMK AO2 SLP125 T01830011 10194 20106 58016
KTHV 241653Z AUTO 29014G20KT 10SM CLR 18/02 A2992 RMK AO2 SLP131 T01830022
KTHV 241553Z AUTO 30016G21KT 10SM CLR 17/03 A2993 RMK AO2 SLP138 T01720028
KTHV 241453Z AUTO 31016G23KT 10SM CLR 17/04 A2994 RMK AO2 SLP141 T01670044 50003
KTHV 241353Z AUTO 34010G18KT 10SM CLR 14/05 A2995 RMK AO2 SLP143 T01440050
KTHV 241253Z AUTO 30014G18KT 10SM CLR 13/06 A2995 RMK AO2 SLP142 T01280056
KTHV 241153Z AUTO 30005KT 10SM CLR 11/06 A2994 RMK AO2 SLP139 T01060061 10128 20106 50008
KTHV 241053Z AUTO 29009KT 10SM CLR 12/06 A2994 RMK AO2 SLP139 T01220061
KTHV 240953Z AUTO 30008KT 10SM BKN036 13/06 A2993 RMK AO2 SLP135 T01280061
KTHV 240853Z AUTO 31012KT 10SM OVC037 13/06 A2991 RMK AO2 SLP130 T01280061 51008
KTHV 240753Z AUTO 30010KT 10SM SCT039 13/06 A2990 RMK AO2 SLP127 T01280056
KTHV 240653Z AUTO 31009KT 10SM CLR 12/05 A2989 RMK AO2 SLP125 T01220050
KTHV 240553Z AUTO 32013G18KT 10SM BKN045 13/04 A2989 RMK AO2 SLP122 T01280044 10161 20128 57005
KTHV 240453Z AUTO 31009G18KT 10SM OVC047 14/04 A2989 RMK AO2 SLP124 T01390044 401610106
KTHV 240353Z AUTO 31010KT 10SM OVC050 15/04 A2990 RMK AO2 SLP125 T01500044
KTHV 240253Z AUTO 31006KT 10SM OVC050 15/06 A2990 RMK AO2 SLP126 T01500056 53005
KTHV 240153Z AUTO 34008KT 10SM OVC050 16/06 A2990 RMK AO2 SLP126 T01560056
KTHV 240053Z AUTO 34008KT 10SM OVC050 16/06 A2989 RMK AO2 SLP122 T01610056
KTHV 232353Z AUTO 31007KT 10SM OVC050 16/06 A2988 RMK AO2 SLP122 T01560061 10161 20150 53018
KTHV 232253Z AUTO 33009KT 10SM OVC050 16/07 A2987 RMK AO2 SLP116 T01610067
KTHV 232153Z AUTO 31013KT 10SM OVC048 16/07 A2984 RMK AO2 SLP107 T01610067
KTHV 232053Z AUTO 31010G18KT 10SM OVC045 16/07 A2983 RMK AO2 SLP103 T01610072 56008